createdAt,value
2018-09-20T00:24:33.407Z,5.57
2018-09-20T00:50:04.759Z,6.00
2018-09-20T01:12:43.336Z,5.83
2018-09-20T01:15:13.076Z,6.00
2018-09-20T01:49:23.125Z,7.00
2018-09-20T02:03:35.937Z,5.90
2018-09-20T02:06:06.370Z,6.43
2018-09-20T02:11:29.224Z,6.43
2018-09-20T02:16:52.479Z,7.20
2018-09-20T02:48:25.333Z,6.47
2018-09-20T03:08:27.027Z,6.63
2018-09-20T03:10:57.423Z,6.87
2018-09-20T03:28:08.391Z,7.77
2018-09-20T03:30:40.947Z,6.90
2018-09-20T03:59:05.688Z,7.40
2018-09-20T04:30:23.222Z,8.60
2018-09-20T04:32:53.690Z,8.77
2018-09-20T04:52:39.791Z,8.37
2018-09-20T04:58:12.296Z,9.13
2018-09-20T05:00:42.552Z,8.40
2018-09-20T05:11:53.041Z,9.07
2018-09-20T05:14:23.838Z,9.07
2018-09-20T05:16:54.890Z,8.87
2018-09-20T05:19:25.074Z,9.17
2018-09-20T05:21:55.496Z,8.90
2018-09-20T05:24:26.126Z,9.67
2018-09-20T05:26:56.379Z,9.30
2018-09-20T05:29:26.619Z,9.50
2018-09-20T05:31:56.628Z,9.10
2018-09-20T05:34:26.901Z,10.30
2018-09-20T05:36:57.185Z,8.77
2018-09-20T05:39:27.344Z,8.87
2018-09-20T05:41:57.807Z,9.83
2018-09-20T05:44:30.045Z,9.33
2018-09-20T05:47:00.813Z,8.27
2018-09-20T05:49:31.435Z,9.40
2018-09-20T05:52:02.535Z,9.47
2018-09-20T05:54:33.060Z,9.20
2018-09-20T05:57:03.268Z,9.33
2018-09-20T05:59:34.193Z,9.33
2018-09-20T06:02:04.439Z,9.40
2018-09-20T06:04:34.919Z,9.37
2018-09-20T06:07:10.436Z,8.97
2018-09-20T06:09:42.679Z,8.73
2018-09-20T06:12:19.057Z,9.50
2018-09-20T06:14:50.920Z,9.00
2018-09-20T06:17:25.137Z,9.67
2018-09-20T06:19:55.875Z,8.83
2018-09-20T06:22:32.516Z,8.10
2018-09-20T06:25:04.083Z,8.53
2018-09-20T06:27:36.338Z,8.13
2018-09-20T06:30:21.773Z,7.97
2018-09-20T06:32:51.592Z,8.13
2018-09-20T06:35:27.039Z,7.70
2018-09-20T06:38:05.213Z,8.40
2018-09-20T06:40:40.671Z,8.63
2018-09-20T06:43:11.942Z,8.00
2018-09-20T06:45:41.974Z,8.40
2018-09-20T06:48:22.188Z,8.60
2018-09-20T06:51:06.427Z,8.30
2018-09-20T06:53:47.147Z,8.20
2018-09-20T06:56:18.040Z,7.70
2018-09-20T06:58:48.592Z,7.53
2018-09-20T07:01:23.416Z,7.80
2018-09-20T07:03:55.769Z,7.80
2018-09-20T07:06:26.099Z,8.00
2018-09-20T07:08:56.683Z,7.73
2018-09-20T07:11:27.343Z,7.60
2018-09-20T07:13:58.209Z,7.60
2018-09-20T07:16:33.080Z,7.83
2018-09-20T07:19:03.389Z,7.53
2018-09-20T07:21:34.257Z,7.60
2018-09-20T07:24:06.304Z,7.40
2018-09-20T07:26:36.562Z,6.83
2018-09-20T07:29:14.825Z,7.40
2018-09-20T07:31:54.991Z,6.90
2018-09-20T07:34:30.818Z,6.40
2018-09-20T07:37:02.444Z,6.23
2018-09-20T07:39:34.287Z,6.27
2018-09-20T07:42:12.818Z,5.87
2018-09-20T07:44:44.158Z,6.10
2018-09-20T07:47:15.308Z,5.60
2018-09-20T07:49:45.998Z,5.27
2018-09-20T07:52:16.002Z,6.27
2018-09-20T07:54:46.647Z,5.80
2018-09-20T07:57:17.323Z,6.13
2018-09-20T07:59:47.833Z,6.57
2018-09-20T08:02:18.859Z,5.57
2018-09-20T08:04:49.948Z,5.30
2018-09-20T08:07:20.371Z,5.90
2018-09-20T08:09:55.237Z,4.80
2018-09-20T08:12:25.588Z,5.30
2018-09-20T08:14:57.068Z,4.90
2018-09-20T08:17:30.912Z,5.30
2018-09-20T08:20:02.231Z,5.07
2018-09-20T08:23:46.063Z,5.10
2018-09-20T08:26:15.763Z,5.20
2018-09-20T08:28:45.536Z,4.70
2018-09-20T08:31:15.485Z,5.07
2018-09-20T08:33:44.761Z,5.00
2018-09-20T08:36:15.849Z,4.73
2018-09-20T08:38:45.767Z,4.43
2018-09-20T08:41:15.599Z,4.83
2018-09-20T08:43:45.444Z,4.33
2018-09-20T08:46:14.988Z,5.27
2018-09-20T08:48:44.729Z,4.37
2018-09-20T08:51:13.970Z,4.50
2018-09-20T08:53:43.707Z,4.53
2018-09-20T08:56:13.379Z,4.30
2018-09-20T08:58:42.801Z,4.23
2018-09-20T09:01:12.277Z,4.07
2018-09-20T09:03:42.159Z,4.10
2018-09-20T09:06:11.869Z,3.90
2018-09-20T09:08:41.699Z,3.20
2018-09-20T09:11:11.166Z,3.70
2018-09-20T09:13:40.839Z,3.63
2018-09-20T09:16:10.597Z,3.53
2018-09-20T09:18:40.407Z,3.47
2018-09-20T09:21:09.988Z,4.33
2018-09-20T09:23:39.424Z,3.80
2018-09-20T09:26:09.128Z,3.90
2018-09-20T09:28:38.587Z,4.00
2018-09-20T09:31:08.145Z,3.73
2018-09-20T09:33:37.610Z,4.20
2018-09-20T09:36:07.238Z,3.77
2018-09-20T09:38:36.514Z,3.83
2018-09-20T09:41:05.766Z,3.23
2018-09-20T09:43:35.316Z,3.37
2018-09-20T09:46:05.062Z,3.10
2018-09-20T09:48:34.632Z,3.67
2018-09-20T09:51:04.094Z,3.97
2018-09-20T09:53:33.606Z,3.57
2018-09-20T09:56:03.208Z,3.43
2018-09-20T09:58:33.008Z,3.10
2018-09-20T10:01:02.472Z,3.67
2018-09-20T10:03:31.946Z,3.13
2018-09-20T10:06:01.865Z,3.37
2018-09-20T10:08:31.577Z,3.03
2018-09-20T10:11:00.781Z,3.13
2018-09-20T10:13:30.518Z,3.43
2018-09-20T10:15:59.995Z,3.40
2018-09-20T10:18:29.309Z,3.40
2018-09-20T10:20:59.207Z,3.17
2018-09-20T10:23:28.970Z,3.23
2018-09-20T10:25:58.529Z,3.17
2018-09-20T10:28:27.712Z,3.40
2018-09-20T10:30:57.486Z,3.57
2018-09-20T10:33:26.970Z,3.30
2018-09-20T10:35:56.628Z,3.30
2018-09-20T10:38:26.219Z,3.13
2018-09-20T10:40:55.655Z,2.93
2018-09-20T10:43:25.471Z,3.03
2018-09-20T10:45:55.035Z,3.33
2018-09-20T10:48:25.152Z,3.30
2018-09-20T10:50:54.538Z,3.00
2018-09-20T10:53:24.416Z,3.30
2018-09-20T10:55:53.979Z,3.50
2018-09-20T10:58:23.530Z,2.80
2018-09-20T11:00:53.333Z,3.10
2018-09-20T11:03:22.778Z,3.10
2018-09-20T11:05:52.353Z,2.80
2018-09-20T11:08:22.209Z,2.87
2018-09-20T11:10:51.796Z,2.87
2018-09-20T11:13:21.089Z,3.00
2018-09-20T11:15:50.997Z,3.17
2018-09-20T11:18:20.203Z,3.10
2018-09-20T11:20:49.721Z,3.60
2018-09-20T11:23:19.281Z,3.13
2018-09-20T11:25:48.504Z,3.23
2018-09-20T11:28:17.809Z,2.83
2018-09-20T11:30:47.074Z,2.80
2018-09-20T11:33:16.858Z,2.93
2018-09-20T11:35:46.296Z,2.77
2018-09-20T11:38:15.648Z,2.90
2018-09-20T11:40:45.208Z,2.90
2018-09-20T11:43:14.834Z,2.72
2018-09-20T11:45:44.555Z,2.80
2018-09-20T11:48:14.146Z,2.55
2018-09-20T11:50:43.952Z,2.87
2018-09-20T11:53:14.048Z,2.80
2018-09-20T11:55:43.398Z,2.65
2018-09-20T11:58:13.258Z,2.92
2018-09-20T12:06:28.667Z,2.67
2018-09-20T12:08:57.967Z,3.08
2018-09-20T12:14:20.764Z,2.70
2018-09-20T12:16:49.949Z,2.72
2018-09-20T12:19:19.458Z,2.70
2018-09-20T12:21:48.958Z,2.55
2018-09-20T12:24:18.831Z,3.00
2018-09-20T12:26:48.321Z,2.62
2018-09-20T12:29:18.491Z,2.75
2018-09-20T12:31:48.337Z,2.58
2018-09-20T12:54:43.283Z,3.22
2018-09-20T12:57:12.664Z,2.65
2018-09-20T13:22:49.099Z,2.83
2018-09-20T13:48:21.642Z,2.83
2018-09-20T14:13:54.609Z,2.77
2018-09-20T14:16:24.815Z,2.50
2018-09-20T14:36:11.341Z,2.90
2018-09-20T14:59:13.247Z,2.65
2018-09-20T15:01:43.233Z,2.55
2018-09-20T15:39:02.214Z,2.60
2018-09-20T15:41:31.704Z,2.40
2018-09-20T15:49:57.094Z,2.65
2018-09-20T15:52:26.900Z,2.67
2018-09-20T15:54:56.892Z,2.60
2018-09-20T15:57:26.707Z,2.62
2018-09-20T15:59:56.287Z,2.80
2018-09-20T16:02:26.064Z,2.87
2018-09-20T16:05:06.885Z,3.12
2018-09-20T16:07:36.654Z,2.62
2018-09-20T16:10:17.680Z,2.47
2018-09-20T16:12:47.653Z,2.90
2018-09-20T16:18:10.487Z,2.33
2018-09-20T16:20:40.277Z,2.72
2018-09-20T16:23:09.827Z,2.30
2018-09-20T16:25:39.639Z,2.35
2018-09-20T16:48:14.302Z,2.52
2018-09-20T17:13:47.515Z,2.62
2018-09-20T17:42:15.632Z,2.97
2018-09-20T17:44:45.038Z,2.43
2018-09-20T17:47:14.917Z,2.80
2018-09-20T17:49:45.184Z,3.20
2018-09-20T17:52:15.293Z,2.60
2018-09-20T17:54:46.278Z,3.67
2018-09-20T17:57:17.340Z,2.83
2018-09-20T17:59:46.661Z,3.27
2018-09-20T18:10:57.713Z,3.33
2018-09-20T18:13:28.618Z,4.60
2018-09-20T18:15:59.492Z,3.17
2018-09-20T18:18:30.185Z,3.53
2018-09-20T18:21:05.690Z,3.47
2018-09-20T18:23:36.703Z,3.17
2018-09-20T18:26:07.292Z,3.43
2018-09-20T18:28:37.919Z,3.63
2018-09-20T18:31:08.861Z,3.20
2018-09-20T18:33:40.619Z,3.03
2018-09-20T18:36:10.970Z,3.00
2018-09-20T18:38:42.874Z,3.33
2018-09-20T18:41:13.567Z,2.93
2018-09-20T18:43:45.231Z,3.63
2018-09-20T18:46:17.318Z,3.30
2018-09-20T18:48:48.202Z,3.10
2018-09-20T18:51:19.165Z,3.40
2018-09-20T18:53:51.221Z,3.17
2018-09-20T18:56:22.343Z,3.20
2018-09-20T18:58:53.035Z,2.93
2018-09-20T19:01:24.626Z,3.30
2018-09-20T19:03:55.072Z,3.10
2018-09-20T19:06:26.683Z,3.20
2018-09-20T19:08:57.518Z,3.70
2018-09-20T19:11:30.551Z,3.50
2018-09-20T19:14:01.395Z,3.43
2018-09-20T19:16:32.469Z,3.10
2018-09-20T19:19:03.321Z,3.37
2018-09-20T19:21:35.760Z,3.77
2018-09-20T19:24:07.498Z,3.17
2018-09-20T19:26:38.120Z,3.17
2018-09-20T19:29:08.703Z,3.13
2018-09-20T19:31:40.067Z,4.03
2018-09-20T19:34:10.867Z,4.00
2018-09-20T19:36:41.510Z,3.33
2018-09-20T19:39:12.657Z,3.63
2018-09-20T19:41:43.187Z,3.87
2018-09-20T19:44:13.428Z,3.33
2018-09-20T19:46:44.253Z,3.83
2018-09-20T19:49:14.359Z,2.93
2018-09-20T19:51:44.131Z,3.53
2018-09-20T19:54:14.277Z,3.20
2018-09-20T19:56:44.184Z,3.47
2018-09-20T19:59:14.179Z,3.33
2018-09-20T20:01:45.357Z,2.93
2018-09-20T20:04:15.361Z,3.33
2018-09-20T20:06:45.401Z,3.20
2018-09-20T20:09:21.614Z,3.10
2018-09-20T20:11:51.385Z,3.43
2018-09-20T20:14:22.381Z,3.07
2018-09-20T20:16:52.681Z,3.27
2018-09-20T20:19:22.853Z,3.40
2018-09-20T20:21:52.465Z,3.00
2018-09-20T20:24:22.916Z,3.30
2018-09-20T20:26:52.893Z,3.33
2018-09-20T20:29:23.473Z,3.07
2018-09-20T20:31:53.469Z,3.43
2018-09-20T20:34:24.187Z,3.10
2018-09-20T20:36:54.531Z,3.70
2018-09-20T20:39:24.625Z,3.70
2018-09-20T20:41:54.642Z,3.47
2018-09-20T20:44:24.707Z,3.20
2018-09-20T20:46:55.461Z,3.47
2018-09-20T20:49:26.486Z,3.20
2018-09-20T20:51:57.967Z,3.40
2018-09-20T20:54:28.586Z,4.70
2018-09-20T20:56:59.842Z,4.20
2018-09-20T20:59:30.194Z,3.50
2018-09-20T21:02:00.490Z,3.83
2018-09-20T21:04:32.236Z,3.90
2018-09-20T21:07:04.025Z,3.90
2018-09-20T21:09:34.737Z,3.80
2018-09-20T21:12:04.899Z,3.40
2018-09-20T21:14:37.471Z,3.57
2018-09-20T21:17:08.536Z,3.50
2018-09-20T21:19:39.048Z,3.67
2018-09-20T21:22:10.991Z,3.40
2018-09-20T21:24:42.207Z,3.90
2018-09-20T21:27:12.732Z,3.80
2018-09-20T21:29:43.478Z,3.90
2018-09-20T21:32:14.044Z,3.90
2018-09-20T21:34:44.608Z,3.90
2018-09-20T21:37:15.190Z,3.90
2018-09-20T21:39:46.391Z,4.23
2018-09-20T21:42:24.380Z,3.80
2018-09-20T21:44:55.048Z,4.33
2018-09-20T21:47:26.151Z,4.97
2018-09-20T21:49:57.035Z,5.67
2018-09-20T21:52:27.632Z,5.30
2018-09-20T21:54:58.814Z,5.07
2018-09-20T21:57:29.799Z,4.40
2018-09-20T22:00:00.408Z,4.50
2018-09-20T22:02:36.043Z,3.77
2018-09-20T22:05:06.673Z,3.87
2018-09-20T22:07:37.443Z,3.83
2018-09-20T22:10:07.873Z,3.90
2018-09-20T22:12:38.488Z,3.47
2018-09-20T22:15:14.384Z,3.80
2018-09-20T22:17:45.392Z,3.70
2018-09-20T22:20:17.108Z,3.97
2018-09-20T22:22:47.928Z,3.60
2018-09-20T22:25:19.141Z,3.93
2018-09-20T22:27:49.935Z,3.70
2018-09-20T22:30:20.293Z,3.90
2018-09-20T22:32:54.094Z,3.27
2018-09-20T22:35:24.951Z,3.57
2018-09-20T22:37:56.200Z,3.57
2018-09-20T22:40:26.992Z,3.90
2018-09-20T22:42:57.936Z,3.80
2018-09-20T22:45:30.525Z,3.73
2018-09-20T22:48:03.639Z,3.77
2018-09-20T22:50:35.147Z,4.10
2018-09-20T22:53:06.393Z,3.70
2018-09-20T22:55:37.376Z,3.80
2018-09-20T22:58:11.191Z,3.50
2018-09-20T23:00:41.916Z,3.60
2018-09-20T23:03:13.023Z,4.20
2018-09-20T23:05:43.853Z,3.60
2018-09-20T23:08:14.871Z,4.07
2018-09-20T23:10:45.353Z,4.27
2018-09-20T23:13:16.668Z,3.40
2018-09-20T23:15:47.303Z,3.60
2018-09-20T23:18:18.434Z,3.87
2018-09-20T23:20:48.979Z,4.00
2018-09-20T23:23:19.714Z,4.00
2018-09-20T23:25:51.686Z,3.50
2018-09-20T23:28:22.124Z,4.27
2018-09-20T23:30:52.870Z,3.73
2018-09-20T23:33:24.077Z,3.80
2018-09-20T23:35:54.460Z,3.53
2018-09-20T23:38:25.437Z,4.20
2018-09-20T23:40:56.143Z,3.60
2018-09-20T23:43:26.739Z,3.97
2018-09-20T23:45:57.595Z,3.70
2018-09-20T23:48:28.905Z,3.40
2018-09-20T23:50:59.366Z,3.90
2018-09-20T23:53:30.330Z,3.97
2018-09-20T23:56:00.957Z,3.47
2018-09-20T23:58:31.849Z,3.97
